sensor_id;sensor_type;location;lat;lon;timestamp;pressure;altitude;pressure_sealevel;temperature;humidity
68871;BME280;55906;52.278;6.808;2024-03-06T00:00:49;101693.50;;;9.19;93.03
68871;BME280;55906;52.278;6.808;2024-03-06T00:03:16;101698.81;;;9.20;92.83
68871;BME280;55906;52.278;6.808;2024-03-06T00:05:43;101695.16;;;9.17;93.08
68871;BME280;55906;52.278;6.808;2024-03-06T00:08:10;101692.69;;;9.20;93.37
68871;BME280;55906;52.278;6.808;2024-03-06T00:10:37;101699.53;;;9.16;93.19
68871;BME280;55906;52.278;6.808;2024-03-06T00:13:04;101704.00;;;9.19;92.95
68871;BME280;55906;52.278;6.808;2024-03-06T00:15:32;101695.31;;;9.20;92.73
68871;BME280;55906;52.278;6.808;2024-03-06T00:17:59;101702.28;;;9.19;92.97
68871;BME280;55906;52.278;6.808;2024-03-06T00:20:26;101701.44;;;9.20;92.91
68871;BME280;55906;52.278;6.808;2024-03-06T00:22:53;101700.56;;;9.20;93.12
68871;BME280;55906;52.278;6.808;2024-03-06T00:25:21;101702.66;;;9.09;93.53
68871;BME280;55906;52.278;6.808;2024-03-06T00:27:48;101707.19;;;9.12;92.89
68871;BME280;55906;52.278;6.808;2024-03-06T00:30:14;101708.81;;;9.10;93.68
68871;BME280;55906;52.278;6.808;2024-03-06T00:32:42;101707.13;;;9.10;93.35
68871;BME280;55906;52.278;6.808;2024-03-06T00:35:09;101708.03;;;9.11;93.39
68871;BME280;55906;52.278;6.808;2024-03-06T00:37:37;101708.66;;;9.07;93.43
68871;BME280;55906;52.278;6.808;2024-03-06T00:40:05;101712.25;;;9.09;93.18
68871;BME280;55906;52.278;6.808;2024-03-06T00:42:32;101719.31;;;9.10;93.48
68871;BME280;55906;52.278;6.808;2024-03-06T00:44:58;101721.13;;;9.11;93.62
68871;BME280;55906;52.278;6.808;2024-03-06T00:47:25;101727.34;;;9.13;93.19
68871;BME280;55906;52.278;6.808;2024-03-06T00:49:54;101729.09;;;9.12;93.52
68871;BME280;55906;52.278;6.808;2024-03-06T00:52:21;101729.09;;;9.12;93.45
68871;BME280;55906;52.278;6.808;2024-03-06T00:54:47;101723.66;;;9.09;93.42
68871;BME280;55906;52.278;6.808;2024-03-06T00:57:14;101728.13;;;9.10;93.69
68871;BME280;55906;52.278;6.808;2024-03-06T00:59:41;101736.78;;;9.09;93.90
68871;BME280;55906;52.278;6.808;2024-03-06T01:02:08;101743.75;;;9.09;93.45
68871;BME280;55906;52.278;6.808;2024-03-06T01:04:35;101747.22;;;9.08;93.27
68871;BME280;55906;52.278;6.808;2024-03-06T01:07:03;101747.38;;;9.11;93.48
68871;BME280;55906;52.278;6.808;2024-03-06T01:09:30;101753.44;;;9.10;93.76
68871;BME280;55906;52.278;6.808;2024-03-06T01:11:56;101752.63;;;9.11;93.75
68871;BME280;55906;52.278;6.808;2024-03-06T01:14:23;101749.25;;;9.13;93.76
68871;BME280;55906;52.278;6.808;2024-03-06T01:16:50;101753.75;;;9.16;93.31
68871;BME280;55906;52.278;6.808;2024-03-06T01:19:17;101759.75;;;9.13;93.16
68871;BME280;55906;52.278;6.808;2024-03-06T01:21:43;101756.06;;;9.10;93.45
68871;BME280;55906;52.278;6.808;2024-03-06T01:24:12;101756.22;;;9.13;93.31
68871;BME280;55906;52.278;6.808;2024-03-06T01:26:39;101755.47;;;9.15;93.72
68871;BME280;55906;52.278;6.808;2024-03-06T01:29:06;101760.72;;;9.15;93.38
68871;BME280;55906;52.278;6.808;2024-03-06T01:31:33;101759.91;;;9.16;93.30
68871;BME280;55906;52.278;6.808;2024-03-06T01:37:22;101765.28;;;9.19;93.16
68871;BME280;55906;52.278;6.808;2024-03-06T01:39:50;101764.31;;;9.17;93.26
68871;BME280;55906;52.278;6.808;2024-03-06T01:42:17;101773.84;;;9.15;93.27
68871;BME280;55906;52.278;6.808;2024-03-06T01:44:44;101763.41;;;9.17;93.49
68871;BME280;55906;52.278;6.808;2024-03-06T01:47:11;101768.81;;;9.20;93.39
68871;BME280;55906;52.278;6.808;2024-03-06T01:49:38;101768.94;;;9.23;93.35
68871;BME280;55906;52.278;6.808;2024-03-06T01:52:05;101761.00;;;9.21;93.38
68871;BME280;55906;52.278;6.808;2024-03-06T01:54:33;101769.50;;;9.16;93.15
68871;BME280;55906;52.278;6.808;2024-03-06T01:57:01;101772.25;;;9.19;93.18
68871;BME280;55906;52.278;6.808;2024-03-06T01:59:29;101776.63;;;9.18;93.29
68871;BME280;55906;52.278;6.808;2024-03-06T02:01:57;101770.47;;;9.18;93.14
68871;BME280;55906;52.278;6.808;2024-03-06T02:04:24;101779.31;;;9.20;93.00
68871;BME280;55906;52.278;6.808;2024-03-06T02:06:53;101785.31;;;9.17;93.46
68871;BME280;55906;52.278;6.808;2024-03-06T02:09:20;101778.34;;;9.18;93.42
68871;BME280;55906;52.278;6.808;2024-03-06T02:11:48;101782.63;;;9.16;92.92
68871;BME280;55906;52.278;6.808;2024-03-06T02:14:17;101790.56;;;9.17;93.11
68871;BME280;55906;52.278;6.808;2024-03-06T02:16:43;101784.50;;;9.18;93.35
68871;BME280;55906;52.278;6.808;2024-03-06T02:19:10;101791.47;;;9.18;93.07
68871;BME280;55906;52.278;6.808;2024-03-06T02:21:38;101786.22;;;9.18;93.30
68871;BME280;55906;52.278;6.808;2024-03-06T02:24:05;101789.66;;;9.17;93.43
68871;BME280;55906;52.278;6.808;2024-03-06T02:26:33;101793.25;;;9.19;93.67
68871;BME280;55906;52.278;6.808;2024-03-06T02:29:00;101788.91;;;9.19;93.29
68871;BME280;55906;52.278;6.808;2024-03-06T02:31:27;101798.50;;;9.19;93.55
68871;BME280;55906;52.278;6.808;2024-03-06T02:33:54;101793.25;;;9.19;93.22
68871;BME280;55906;52.278;6.808;2024-03-06T02:36:21;101790.34;;;9.13;93.35
68871;BME280;55906;52.278;6.808;2024-03-06T02:38:49;101795.59;;;9.13;93.33
68871;BME280;55906;52.278;6.808;2024-03-06T02:41:16;101797.41;;;9.14;93.36
68871;BME280;55906;52.278;6.808;2024-03-06T02:43:43;101802.66;;;9.14;93.39
68871;BME280;55906;52.278;6.808;2024-03-06T02:46:10;101796.25;;;9.09;93.72
68871;BME280;55906;52.278;6.808;2024-03-06T02:48:37;101793.63;;;9.09;94.05
68871;BME280;55906;52.278;6.808;2024-03-06T02:51:04;101798.88;;;9.09;93.87
68871;BME280;55906;52.278;6.808;2024-03-06T02:53:31;101795.28;;;9.07;93.89
68871;BME280;55906;52.278;6.808;2024-03-06T02:55:59;101797.09;;;9.08;93.87
68871;BME280;55906;52.278;6.808;2024-03-06T02:58:26;101799.72;;;9.08;93.70
68871;BME280;55906;52.278;6.808;2024-03-06T03:00:56;101799.72;;;9.08;93.80
68871;BME280;55906;52.278;6.808;2024-03-06T03:03:22;101794.47;;;9.08;93.79
68871;BME280;55906;52.278;6.808;2024-03-06T03:05:50;101799.72;;;9.08;93.88
68871;BME280;55906;52.278;6.808;2024-03-06T03:08:17;101795.34;;;9.08;93.75
68871;BME280;55906;52.278;6.808;2024-03-06T03:10:43;101804.00;;;9.06;93.69
68871;BME280;55906;52.278;6.808;2024-03-06T03:13:12;101792.66;;;9.07;94.04
68871;BME280;55906;52.278;6.808;2024-03-06T03:15:39;101803.16;;;9.07;94.00
68871;BME280;55906;52.278;6.808;2024-03-06T03:18:07;101802.25;;;9.06;94.09
68871;BME280;55906;52.278;6.808;2024-03-06T03:20:33;101801.50;;;9.09;93.28
68871;BME280;55906;52.278;6.808;2024-03-06T03:23:01;101799.50;;;9.03;93.85
68871;BME280;55906;52.278;6.808;2024-03-06T03:25:28;101800.25;;;9.01;93.82
68871;BME280;55906;52.278;6.808;2024-03-06T03:27:55;101799.41;;;9.02;94.14
68871;BME280;55906;52.278;6.808;2024-03-06T03:30:23;101807.28;;;9.02;94.22
68871;BME280;55906;52.278;6.808;2024-03-06T03:32:50;101804.38;;;8.95;94.20
68871;BME280;55906;52.278;6.808;2024-03-06T03:35:17;101814.13;;;8.98;94.26
68871;BME280;55906;52.278;6.808;2024-03-06T03:37:49;101804.53;;;8.98;93.86
68871;BME280;55906;52.278;6.808;2024-03-06T03:40:17;101811.56;;;8.99;93.87
68871;BME280;55906;52.278;6.808;2024-03-06T03:42:44;101799.22;;;8.97;94.10
68871;BME280;55906;52.278;6.808;2024-03-06T03:45:11;101801.00;;;8.98;93.95
68871;BME280;55906;52.278;6.808;2024-03-06T03:47:41;101806.47;;;9.03;94.05
68871;BME280;55906;52.278;6.808;2024-03-06T03:50:08;101808.94;;;8.99;93.82
68871;BME280;55906;52.278;6.808;2024-03-06T03:52:36;101809.69;;;8.97;93.83
68871;BME280;55906;52.278;6.808;2024-03-06T03:55:07;101811.44;;;8.96;94.27
68871;BME280;55906;52.278;6.808;2024-03-06T03:57:34;101812.41;;;8.98;93.96
68871;BME280;55906;52.278;6.808;2024-03-06T04:00:00;101814.88;;;8.95;93.90
68871;BME280;55906;52.278;6.808;2024-03-06T04:02:27;101821.09;;;8.97;94.18
68871;BME280;55906;52.278;6.808;2024-03-06T04:04:55;101824.09;;;8.87;94.36
68871;BME280;55906;52.278;6.808;2024-03-06T04:07:22;101827.78;;;8.91;94.24
68871;BME280;55906;52.278;6.808;2024-03-06T04:09:49;101825.97;;;8.90;94.32
68871;BME280;55906;52.278;6.808;2024-03-06T04:12:16;101825.84;;;8.87;94.39
68871;BME280;55906;52.278;6.808;2024-03-06T04:14:43;101831.97;;;8.87;94.18
68871;BME280;55906;52.278;6.808;2024-03-06T04:17:10;101838.19;;;8.89;94.46
68871;BME280;55906;52.278;6.808;2024-03-06T04:19:37;101830.25;;;8.88;93.94
68871;BME280;55906;52.278;6.808;2024-03-06T04:22:05;101829.44;;;8.89;94.01
68871;BME280;55906;52.278;6.808;2024-03-06T04:24:32;101831.00;;;8.85;94.02
68871;BME280;55906;52.278;6.808;2024-03-06T04:26:59;101838.13;;;8.88;94.34
68871;BME280;55906;52.278;6.808;2024-03-06T04:29:26;101842.47;;;8.87;94.10
68871;BME280;55906;52.278;6.808;2024-03-06T04:31:52;101846.97;;;8.90;93.92
68871;BME280;55906;52.278;6.808;2024-03-06T04:34:20;101852.97;;;8.87;93.85
68871;BME280;55906;52.278;6.808;2024-03-06T04:36:48;101852.22;;;8.90;93.86
68871;BME280;55906;52.278;6.808;2024-03-06T04:39:16;101847.94;;;8.92;93.98
68871;BME280;55906;52.278;6.808;2024-03-06T04:41:43;101855.75;;;8.90;94.24
68871;BME280;55906;52.278;6.808;2024-03-06T04:44:10;101859.34;;;8.92;93.63
68871;BME280;55906;52.278;6.808;2024-03-06T04:46:37;101853.13;;;8.90;93.75
68871;BME280;55906;52.278;6.808;2024-03-06T04:49:04;101860.03;;;8.88;93.77
68871;BME280;55906;52.278;6.808;2024-03-06T04:51:31;101863.63;;;8.90;94.11
68871;BME280;55906;52.278;6.808;2024-03-06T04:53:57;101869.84;;;8.92;94.00
68871;BME280;55906;52.278;6.808;2024-03-06T04:56:26;101869.00;;;8.93;93.69
68871;BME280;55906;52.278;6.808;2024-03-06T04:58:52;101867.06;;;8.89;93.74
68871;BME280;55906;52.278;6.808;2024-03-06T05:01:19;101870.50;;;8.88;93.69
68871;BME280;55906;52.278;6.808;2024-03-06T05:03:47;101874.88;;;8.88;93.80
68871;BME280;55906;52.278;6.808;2024-03-06T05:06:14;101873.97;;;8.87;93.65
68871;BME280;55906;52.278;6.808;2024-03-06T05:08:41;101882.75;;;8.88;93.89
68871;BME280;55906;52.278;6.808;2024-03-06T05:11:08;101872.16;;;8.86;93.84
68871;BME280;55906;52.278;6.808;2024-03-06T05:13:36;101879.97;;;8.85;93.83
68871;BME280;55906;52.278;6.808;2024-03-06T05:16:03;101885.97;;;8.82;93.83
68871;BME280;55906;52.278;6.808;2024-03-06T05:18:30;101885.81;;;8.79;94.03
68871;BME280;55906;52.278;6.808;2024-03-06T05:20:59;101895.47;;;8.80;93.62
68871;BME280;55906;52.278;6.808;2024-03-06T05:23:26;101897.28;;;8.81;93.93
68871;BME280;55906;52.278;6.808;2024-03-06T05:25:53;101899.00;;;8.81;93.74
68871;BME280;55906;52.278;6.808;2024-03-06T05:28:20;101905.00;;;8.78;93.84
68871;BME280;55906;52.278;6.808;2024-03-06T05:30:48;101902.38;;;8.78;93.57
68871;BME280;55906;52.278;6.808;2024-03-06T05:33:15;101906.66;;;8.76;93.90
68871;BME280;55906;52.278;6.808;2024-03-06T05:35:41;101905.81;;;8.77;93.75
68871;BME280;55906;52.278;6.808;2024-03-06T05:38:08;101912.72;;;8.75;93.91
68871;BME280;55906;52.278;6.808;2024-03-06T05:40:35;101912.56;;;8.72;94.23
68871;BME280;55906;52.278;6.808;2024-03-06T05:43:04;101918.63;;;8.71;93.84
68871;BME280;55906;52.278;6.808;2024-03-06T05:45:31;101925.69;;;8.72;93.77
68871;BME280;55906;52.278;6.808;2024-03-06T05:47:59;101922.16;;;8.72;93.65
68871;BME280;55906;52.278;6.808;2024-03-06T05:50:26;101921.25;;;8.71;93.79
68871;BME280;55906;52.278;6.808;2024-03-06T05:52:53;101934.38;;;8.71;93.45
68871;BME280;55906;52.278;6.808;2024-03-06T05:55:19;101938.63;;;8.69;93.30
68871;BME280;55906;52.278;6.808;2024-03-06T05:57:46;101942.00;;;8.66;93.55
68871;BME280;55906;52.278;6.808;2024-03-06T06:00:14;101943.66;;;8.64;93.69
68871;BME280;55906;52.278;6.808;2024-03-06T06:02:43;101940.28;;;8.67;93.55
68871;BME280;55906;52.278;6.808;2024-03-06T06:05:12;101945.53;;;8.67;93.52
68871;BME280;55906;52.278;6.808;2024-03-06T06:07:39;101949.72;;;8.63;93.46
68871;BME280;55906;52.278;6.808;2024-03-06T06:10:06;101963.16;;;8.70;93.34
68871;BME280;55906;52.278;6.808;2024-03-06T06:12:35;101971.91;;;8.70;93.20
68871;BME280;55906;52.278;6.808;2024-03-06T06:15:02;101971.03;;;8.70;93.13
68871;BME280;55906;52.278;6.808;2024-03-06T06:17:29;101984.13;;;8.70;93.14
68871;BME280;55906;52.278;6.808;2024-03-06T06:19:55;101975.44;;;8.71;92.98
68871;BME280;55906;52.278;6.808;2024-03-06T06:22:26;101983.38;;;8.72;93.06
68871;BME280;55906;52.278;6.808;2024-03-06T06:24:53;101984.28;;;8.73;92.90
68871;BME280;55906;52.278;6.808;2024-03-06T06:27:21;101982.56;;;8.73;93.13
68871;BME280;55906;52.278;6.808;2024-03-06T06:29:47;101983.53;;;8.75;93.30
68871;BME280;55906;52.278;6.808;2024-03-06T06:32:14;101979.28;;;8.77;93.12
68871;BME280;55906;52.278;6.808;2024-03-06T06:34:41;101983.72;;;8.78;93.29
68871;BME280;55906;52.278;6.808;2024-03-06T06:37:07;101985.50;;;8.79;93.16
68871;BME280;55906;52.278;6.808;2024-03-06T06:39:36;101988.22;;;8.81;92.89
68871;BME280;55906;52.278;6.808;2024-03-06T06:42:03;101997.81;;;8.80;92.91
68871;BME280;55906;52.278;6.808;2024-03-06T06:44:29;102006.66;;;8.82;93.08
68871;BME280;55906;52.278;6.808;2024-03-06T06:46:56;102013.69;;;8.83;93.03
68871;BME280;55906;52.278;6.808;2024-03-06T06:49:23;102004.09;;;8.84;93.31
68871;BME280;55906;52.278;6.808;2024-03-06T06:51:50;102016.63;;;8.89;93.15
68871;BME280;55906;52.278;6.808;2024-03-06T06:54:16;102020.31;;;8.93;93.26
68871;BME280;55906;52.278;6.808;2024-03-06T06:56:44;102024.75;;;8.94;93.09
68871;BME280;55906;52.278;6.808;2024-03-06T06:59:11;102030.88;;;8.94;92.96
68871;BME280;55906;52.278;6.808;2024-03-06T07:01:38;102032.63;;;8.94;92.87
68871;BME280;55906;52.278;6.808;2024-03-06T07:04:06;102037.94;;;8.95;92.78
68871;BME280;55906;52.278;6.808;2024-03-06T07:06:32;102037.19;;;8.98;92.97
68871;BME280;55906;52.278;6.808;2024-03-06T07:08:59;102038.25;;;9.02;93.03
68871;BME280;55906;52.278;6.808;2024-03-06T07:11:26;102040.22;;;9.06;92.89
68871;BME280;55906;52.278;6.808;2024-03-06T07:13:54;102036.13;;;9.11;92.66
68871;BME280;55906;52.278;6.808;2024-03-06T07:16:20;102037.94;;;9.12;92.56
68871;BME280;55906;52.278;6.808;2024-03-06T07:18:48;102044.38;;;9.18;92.56
68871;BME280;55906;52.278;6.808;2024-03-06T07:21:15;102050.91;;;9.26;92.50
68871;BME280;55906;52.278;6.808;2024-03-06T07:23:43;102049.34;;;9.30;92.22
68871;BME280;55906;52.278;6.808;2024-03-06T07:26:10;102051.31;;;9.34;91.99
68871;BME280;55906;52.278;6.808;2024-03-06T07:28:36;102048.84;;;9.37;91.89
68871;BME280;55906;52.278;6.808;2024-03-06T07:31:05;102055.97;;;9.40;92.36
68871;BME280;55906;52.278;6.808;2024-03-06T07:33:31;102052.75;;;9.45;91.94
68871;BME280;55906;52.278;6.808;2024-03-06T07:36:03;102060.91;;;9.51;91.92
68871;BME280;55906;52.278;6.808;2024-03-06T07:38:31;102067.16;;;9.53;91.42
68871;BME280;55906;52.278;6.808;2024-03-06T07:40:58;102067.81;;;9.49;91.40
68871;BME280;55906;52.278;6.808;2024-03-06T07:43:24;102071.56;;;9.54;91.56
68871;BME280;55906;52.278;6.808;2024-03-06T07:45:52;102070.06;;;9.59;91.70
68871;BME280;55906;52.278;6.808;2024-03-06T07:48:20;102079.91;;;9.63;91.70
68871;BME280;55906;52.278;6.808;2024-03-06T07:50:47;102074.88;;;9.68;91.25
68871;BME280;55906;52.278;6.808;2024-03-06T07:53:13;102087.41;;;9.74;91.29
68871;BME280;55906;52.278;6.808;2024-03-06T07:55:41;102090.19;;;9.77;90.99
68871;BME280;55906;52.278;6.808;2024-03-06T07:58:08;102088.69;;;9.82;90.97
68871;BME280;55906;52.278;6.808;2024-03-06T08:00:34;102093.34;;;9.87;90.98
68871;BME280;55906;52.278;6.808;2024-03-06T08:03:01;102091.75;;;9.91;90.69
68871;BME280;55906;52.278;6.808;2024-03-06T08:05:29;102091.28;;;10.00;90.82
68871;BME280;55906;52.278;6.808;2024-03-06T08:07:59;102089.78;;;10.05;90.37
68871;BME280;55906;52.278;6.808;2024-03-06T08:10:25;102098.88;;;10.11;89.89
68871;BME280;55906;52.278;6.808;2024-03-06T08:12:52;102096.59;;;10.19;90.01
68871;BME280;55906;52.278;6.808;2024-03-06T08:15:19;102097.00;;;10.26;89.55
68871;BME280;55906;52.278;6.808;2024-03-06T08:17:48;102100.03;;;10.36;89.98
68871;BME280;55906;52.278;6.808;2024-03-06T08:20:18;102103.91;;;10.42;89.61
68871;BME280;55906;52.278;6.808;2024-03-06T08:22:46;102102.16;;;10.43;88.43
68871;BME280;55906;52.278;6.808;2024-03-06T08:25:14;102097.03;;;10.46;88.66
68871;BME280;55906;52.278;6.808;2024-03-06T08:27:41;102101.41;;;10.45;88.93
68871;BME280;55906;52.278;6.808;2024-03-06T08:30:09;102108.00;;;10.55;89.39
68871;BME280;55906;52.278;6.808;2024-03-06T08:32:36;102111.72;;;10.60;88.80
68871;BME280;55906;52.278;6.808;2024-03-06T08:35:04;102117.19;;;10.65;88.34
68871;BME280;55906;52.278;6.808;2024-03-06T08:37:32;102118.88;;;10.63;87.32
68871;BME280;55906;52.278;6.808;2024-03-06T08:40:00;102120.72;;;10.65;87.46
68871;BME280;55906;52.278;6.808;2024-03-06T08:42:27;102126.00;;;10.65;87.95
68871;BME280;55906;52.278;6.808;2024-03-06T08:44:54;102131.41;;;10.68;87.46
68871;BME280;55906;52.278;6.808;2024-03-06T08:47:22;102138.75;;;10.75;88.05
68871;BME280;55906;52.278;6.808;2024-03-06T08:49:48;102141.88;;;10.86;87.86
68871;BME280;55906;52.278;6.808;2024-03-06T08:52:15;102139.44;;;10.90;87.21
68871;BME280;55906;52.278;6.808;2024-03-06T08:54:42;102137.84;;;10.94;86.56
68871;BME280;55906;52.278;6.808;2024-03-06T08:57:10;102153.16;;;11.03;86.13
68871;BME280;55906;52.278;6.808;2024-03-06T08:59:37;102157.78;;;11.08;86.00
68871;BME280;55906;52.278;6.808;2024-03-06T09:02:12;102153.69;;;11.15;85.54
68871;BME280;55906;52.278;6.808;2024-03-06T09:04:40;102150.44;;;11.20;86.24
68871;BME280;55906;52.278;6.808;2024-03-06T09:07:07;102156.16;;;11.31;85.65
68871;BME280;55906;52.278;6.808;2024-03-06T09:09:34;102163.22;;;11.32;85.42
68871;BME280;55906;52.278;6.808;2024-03-06T09:12:01;102158.63;;;11.47;85.35
68871;BME280;55906;52.278;6.808;2024-03-06T09:14:31;102157.84;;;11.50;84.75
68871;BME280;55906;52.278;6.808;2024-03-06T09:16:58;102163.78;;;11.65;84.95
68871;BME280;55906;52.278;6.808;2024-03-06T09:19:25;102171.75;;;11.86;84.78
68871;BME280;55906;52.278;6.808;2024-03-06T09:21:52;102163.16;;;12.12;83.65
68871;BME280;55906;52.278;6.808;2024-03-06T09:24:20;102161.25;;;12.31;82.83
68871;BME280;55906;52.278;6.808;2024-03-06T09:26:48;102169.28;;;12.34;81.79
68871;BME280;55906;52.278;6.808;2024-03-06T09:29:15;102172.28;;;12.43;83.24
68871;BME280;55906;52.278;6.808;2024-03-06T09:31:43;102170.00;;;12.52;81.91
68871;BME280;55906;52.278;6.808;2024-03-06T09:34:11;102180.94;;;12.61;81.39
68871;BME280;55906;52.278;6.808;2024-03-06T09:36:38;102179.31;;;12.65;79.96
68871;BME280;55906;52.278;6.808;2024-03-06T09:39:05;102184.59;;;12.65;80.93
68871;BME280;55906;52.278;6.808;2024-03-06T09:41:33;102184.69;;;12.90;81.16
68871;BME280;55906;52.278;6.808;2024-03-06T09:44:00;102186.19;;;12.83;79.97
68871;BME280;55906;52.278;6.808;2024-03-06T09:46:27;102187.91;;;13.05;80.37
68871;BME280;55906;52.278;6.808;2024-03-06T09:48:55;102193.59;;;13.16;79.35
68871;BME280;55906;52.278;6.808;2024-03-06T09:51:22;102186.47;;;13.37;79.65
68871;BME280;55906;52.278;6.808;2024-03-06T09:53:49;102198.50;;;13.53;78.41
68871;BME280;55906;52.278;6.808;2024-03-06T09:56:18;102200.56;;;13.62;78.31
68871;BME280;55906;52.278;6.808;2024-03-06T09:58:46;102203.72;;;13.77;77.20
68871;BME280;55906;52.278;6.808;2024-03-06T10:01:14;102202.78;;;13.75;76.22
68871;BME280;55906;52.278;6.808;2024-03-06T10:03:41;102198.56;;;14.07;74.58
68871;BME280;55906;52.278;6.808;2024-03-06T10:06:10;102202.28;;;14.39;75.14
68871;BME280;55906;52.278;6.808;2024-03-06T10:08:41;102202.75;;;14.53;74.92
68871;BME280;55906;52.278;6.808;2024-03-06T10:11:08;102196.53;;;15.11;74.47
68871;BME280;55906;52.278;6.808;2024-03-06T10:13:36;102197.94;;;15.29;72.87
68871;BME280;55906;52.278;6.808;2024-03-06T10:16:04;102197.59;;;15.49;72.39
68871;BME280;55906;52.278;6.808;2024-03-06T10:18:34;102199.22;;;15.44;72.40
68871;BME280;55906;52.278;6.808;2024-03-06T10:21:00;102205.19;;;15.65;65.79
68871;BME280;55906;52.278;6.808;2024-03-06T10:23:28;102201.69;;;16.00;69.14
68871;BME280;55906;52.278;6.808;2024-03-06T10:25:57;102199.78;;;16.69;68.96
68871;BME280;55906;52.278;6.808;2024-03-06T10:28:24;102197.53;;;17.29;68.58
68871;BME280;55906;52.278;6.808;2024-03-06T10:30:51;102201.00;;;17.25;68.50
68871;BME280;55906;52.278;6.808;2024-03-06T10:33:19;102199.66;;;17.02;69.19
68871;BME280;55906;52.278;6.808;2024-03-06T10:35:47;102200.06;;;17.23;68.31
68871;BME280;55906;52.278;6.808;2024-03-06T10:38:14;102197.03;;;17.48;67.09
68871;BME280;55906;52.278;6.808;2024-03-06T10:40:43;102203.63;;;17.67;66.32
68871;BME280;55906;52.278;6.808;2024-03-06T10:43:11;102204.09;;;17.95;64.79
68871;BME280;55906;52.278;6.808;2024-03-06T10:45:47;102210.59;;;18.12;58.10
68871;BME280;55906;52.278;6.808;2024-03-06T10:48:15;102207.97;;;17.65;62.84
68871;BME280;55906;52.278;6.808;2024-03-06T10:50:44;102213.25;;;16.76;61.21
68871;BME280;55906;52.278;6.808;2024-03-06T10:53:12;102221.41;;;17.26;62.95
68871;BME280;55906;52.278;6.808;2024-03-06T10:55:40;102218.69;;;16.82;63.02
68871;BME280;55906;52.278;6.808;2024-03-06T10:58:08;102217.19;;;17.36;61.90
68871;BME280;55906;52.278;6.808;2024-03-06T11:00:37;102216.13;;;17.27;59.14
68871;BME280;55906;52.278;6.808;2024-03-06T11:03:08;102217.00;;;17.72;59.87
68871;BME280;55906;52.278;6.808;2024-03-06T11:05:37;102213.53;;;17.31;58.10
68871;BME280;55906;52.278;6.808;2024-03-06T11:08:06;102221.19;;;17.59;60.82
68871;BME280;55906;52.278;6.808;2024-03-06T11:10:34;102223.44;;;17.84;59.38
68871;BME280;55906;52.278;6.808;2024-03-06T11:13:01;102232.44;;;17.91;59.67
68871;BME280;55906;52.278;6.808;2024-03-06T11:15:31;102226.63;;;18.13;57.62
68871;BME280;55906;52.278;6.808;2024-03-06T11:17:58;102225.94;;;18.81;57.29
68871;BME280;55906;52.278;6.808;2024-03-06T11:20:33;102226.63;;;19.34;54.83
68871;BME280;55906;52.278;6.808;2024-03-06T11:23:07;102216.47;;;19.77;53.06
68871;BME280;55906;52.278;6.808;2024-03-06T11:25:56;102218.81;;;20.43;51.62
68871;BME280;55906;52.278;6.808;2024-03-06T11:28:25;102213.75;;;20.85;52.22
68871;BME280;55906;52.278;6.808;2024-03-06T11:30:57;102224.34;;;20.69;49.16
68871;BME280;55906;52.278;6.808;2024-03-06T11:33:28;102224.59;;;21.14;51.47
68871;BME280;55906;52.278;6.808;2024-03-06T11:36:19;102224.75;;;21.47;45.52
68871;BME280;55906;52.278;6.808;2024-03-06T11:38:52;102227.28;;;21.14;45.97
68871;BME280;55906;52.278;6.808;2024-03-06T11:41:21;102225.75;;;22.07;49.91
68871;BME280;55906;52.278;6.808;2024-03-06T11:43:48;102228.41;;;22.68;49.07
68871;BME280;55906;52.278;6.808;2024-03-06T11:46:20;102231.97;;;22.75;47.43
68871;BME280;55906;52.278;6.808;2024-03-06T11:48:55;102226.56;;;21.63;47.01
68871;BME280;55906;52.278;6.808;2024-03-06T11:51:22;102234.59;;;21.54;48.59
68871;BME280;55906;52.278;6.808;2024-03-06T11:53:49;102227.50;;;21.85;48.79
68871;BME280;55906;52.278;6.808;2024-03-06T11:56:17;102232.00;;;22.03;47.29
68871;BME280;55906;52.278;6.808;2024-03-06T11:58:45;102227.56;;;22.51;46.35
68871;BME280;55906;52.278;6.808;2024-03-06T12:01:11;102223.03;;;22.86;45.44
68871;BME280;55906;52.278;6.808;2024-03-06T12:03:40;102230.09;;;23.12;44.22
68871;BME280;55906;52.278;6.808;2024-03-06T12:06:07;102228.06;;;23.67;44.78
68871;BME280;55906;52.278;6.808;2024-03-06T12:08:34;102223.63;;;23.61;43.92
68871;BME280;55906;52.278;6.808;2024-03-06T12:11:02;102223.13;;;24.29;43.98
68871;BME280;55906;52.278;6.808;2024-03-06T12:13:29;102221.50;;;24.08;43.43
68871;BME280;55906;52.278;6.808;2024-03-06T12:15:56;102227.28;;;24.62;42.88
68871;BME280;55906;52.278;6.808;2024-03-06T12:18:24;102218.25;;;24.69;42.06
68871;BME280;55906;52.278;6.808;2024-03-06T12:20:52;102224.81;;;25.25;41.70
68871;BME280;55906;52.278;6.808;2024-03-06T12:23:20;102221.69;;;25.55;40.67
68871;BME280;55906;52.278;6.808;2024-03-06T12:26:02;102229.47;;;25.78;36.05
68871;BME280;55906;52.278;6.808;2024-03-06T12:28:29;102221.22;;;25.87;39.11
68871;BME280;55906;52.278;6.808;2024-03-06T12:30:56;102230.53;;;25.66;40.46
68871;BME280;55906;52.278;6.808;2024-03-06T12:33:26;102227.66;;;25.78;39.45
68871;BME280;55906;52.278;6.808;2024-03-06T12:36:04;102229.47;;;26.35;36.09
68871;BME280;55906;52.278;6.808;2024-03-06T12:38:31;102229.34;;;26.42;37.94
68871;BME280;55906;52.278;6.808;2024-03-06T12:40:58;102229.03;;;26.59;37.29
68871;BME280;55906;52.278;6.808;2024-03-06T12:43:25;102226.31;;;26.61;37.94
68871;BME280;55906;52.278;6.808;2024-03-06T12:45:54;102229.72;;;25.58;38.00
68871;BME280;55906;52.278;6.808;2024-03-06T12:48:22;102222.59;;;26.15;37.14
68871;BME280;55906;52.278;6.808;2024-03-06T12:50:49;102220.50;;;25.11;32.56
68871;BME280;55906;52.278;6.808;2024-03-06T12:53:21;102222.25;;;24.28;37.24
68871;BME280;55906;52.278;6.808;2024-03-06T12:55:48;102224.50;;;24.72;37.76
68871;BME280;55906;52.278;6.808;2024-03-06T12:58:15;102230.31;;;24.25;38.05
68871;BME280;55906;52.278;6.808;2024-03-06T13:00:41;102234.44;;;23.46;38.35